createdAt,value
2018-11-23T00:01:57.059Z,33.10
2018-11-23T00:04:27.329Z,30.37
2018-11-23T00:06:57.694Z,32.83
2018-11-23T00:09:28.429Z,39.30
2018-11-23T00:11:58.759Z,33.43
2018-11-23T00:14:28.984Z,32.90
2018-11-23T00:16:59.344Z,34.67
2018-11-23T00:19:29.839Z,38.37
2018-11-23T00:21:59.949Z,44.97
2018-11-23T00:24:30.629Z,45.07
2018-11-23T00:27:01.009Z,46.83
2018-11-23T00:29:31.414Z,40.50
2018-11-23T00:32:02.089Z,34.97
2018-11-23T00:34:32.289Z,40.57
2018-11-23T00:37:02.064Z,37.50
2018-11-23T00:39:32.634Z,34.90
2018-11-23T00:42:02.399Z,38.10
2018-11-23T00:44:32.449Z,35.73
2018-11-23T00:47:03.224Z,33.53
2018-11-23T00:49:33.474Z,31.60
2018-11-23T00:52:03.224Z,32.97
2018-11-23T00:54:34.004Z,31.77
2018-11-23T00:57:04.414Z,35.70
2018-11-23T00:59:34.688Z,40.90
2018-11-23T01:02:06.468Z,40.30
2018-11-23T01:04:37.479Z,34.07
2018-11-23T01:07:07.814Z,36.00
2018-11-23T01:09:38.394Z,38.03
2018-11-23T01:12:08.624Z,39.07
2018-11-23T01:14:39.134Z,37.40
2018-11-23T01:17:09.634Z,33.83
2018-11-23T01:19:40.020Z,37.70
2018-11-23T01:22:09.824Z,38.37
2018-11-23T01:24:39.819Z,33.07
2018-11-23T01:27:09.963Z,37.57
2018-11-23T01:29:40.568Z,36.73
2018-11-23T01:32:10.810Z,39.33
2018-11-23T01:34:41.359Z,39.70
2018-11-23T01:37:11.499Z,34.03
2018-11-23T01:39:41.430Z,32.40
2018-11-23T01:42:11.419Z,36.37
2018-11-23T01:44:52.279Z,31.63
2018-11-23T01:47:23.360Z,31.03
2018-11-23T01:49:53.835Z,29.63
2018-11-23T01:52:23.963Z,33.93
2018-11-23T01:54:54.909Z,34.03
2018-11-23T01:57:24.959Z,33.63
2018-11-23T01:59:55.489Z,32.53
2018-11-23T02:02:25.694Z,35.37
2018-11-23T02:04:55.898Z,36.00
2018-11-23T02:07:26.679Z,35.67
2018-11-23T02:09:57.398Z,39.03
2018-11-23T02:12:27.004Z,39.33
2018-11-23T02:14:57.494Z,38.53
2018-11-23T02:17:28.300Z,41.07
2018-11-23T02:19:58.570Z,38.60
2018-11-23T02:22:29.394Z,38.90
2018-11-23T02:24:59.795Z,45.40
2018-11-23T02:27:29.434Z,41.47
2018-11-23T02:29:59.136Z,40.97
2018-11-23T02:32:29.054Z,40.70
2018-11-23T02:34:59.109Z,42.93
2018-11-23T02:37:32.341Z,43.53
2018-11-23T02:40:02.909Z,39.60
2018-11-23T02:42:33.404Z,37.40
2018-11-23T02:45:03.609Z,34.60
2018-11-23T02:47:34.118Z,36.70
2018-11-23T02:50:04.089Z,40.40
2018-11-23T02:52:34.656Z,40.37
2018-11-23T02:55:05.035Z,42.00
2018-11-23T02:57:36.408Z,41.13
2018-11-23T03:00:07.574Z,41.87
2018-11-23T03:02:37.919Z,40.07
2018-11-23T03:05:10.689Z,45.13
2018-11-23T03:07:41.459Z,40.57
2018-11-23T03:10:13.126Z,43.90
2018-11-23T03:12:43.877Z,46.30
2018-11-23T03:15:15.508Z,50.40
2018-11-23T03:17:46.319Z,46.73
2018-11-23T03:20:17.445Z,44.43
2018-11-23T03:22:47.190Z,50.70
2018-11-23T03:25:17.720Z,47.97
2018-11-23T03:27:48.117Z,49.03
2018-11-23T03:30:23.015Z,48.70
2018-11-23T03:32:54.011Z,50.30
2018-11-23T03:35:24.669Z,48.30
2018-11-23T03:37:55.354Z,50.40
2018-11-23T03:40:26.281Z,46.17
2018-11-23T03:42:56.835Z,47.87
2018-11-23T03:45:26.884Z,46.37
2018-11-23T03:47:57.337Z,46.87
2018-11-23T03:50:27.375Z,50.43
2018-11-23T03:52:57.810Z,44.43
2018-11-23T03:55:28.245Z,45.00
2018-11-23T03:57:58.409Z,45.20
2018-11-23T04:00:28.961Z,44.53
2018-11-23T04:02:59.635Z,48.97
2018-11-23T04:05:29.875Z,44.67
2018-11-23T04:07:59.845Z,44.47
2018-11-23T04:10:30.130Z,43.10
2018-11-23T04:12:59.970Z,41.30
2018-11-23T04:15:30.897Z,44.67
2018-11-23T04:18:01.030Z,43.80
2018-11-23T04:20:31.239Z,46.50
2018-11-23T04:23:01.775Z,43.67
2018-11-23T04:25:32.265Z,45.20
2018-11-23T04:28:02.090Z,46.10
2018-11-23T04:30:32.473Z,47.13
2018-11-23T04:33:03.006Z,62.63
2018-11-23T04:35:33.514Z,52.77
2018-11-23T04:38:03.490Z,45.20
2018-11-23T04:40:34.136Z,46.17
2018-11-23T04:43:04.274Z,48.93
2018-11-23T04:45:34.505Z,47.63
2018-11-23T04:48:04.196Z,42.83
2018-11-23T04:50:34.511Z,42.10
2018-11-23T04:53:04.724Z,45.60
2018-11-23T04:55:34.554Z,45.70
2018-11-23T04:58:05.004Z,45.00
2018-11-23T05:00:34.877Z,44.17
2018-11-23T05:03:04.529Z,46.90
2018-11-23T05:05:34.229Z,47.87
2018-11-23T05:08:04.506Z,46.67
2018-11-23T05:10:34.959Z,43.13
2018-11-23T05:13:05.151Z,44.37
2018-11-23T05:15:35.889Z,43.67
2018-11-23T05:18:06.540Z,42.73
2018-11-23T05:20:37.099Z,39.50
2018-11-23T05:23:07.175Z,43.10
2018-11-23T05:25:37.370Z,44.13
2018-11-23T05:28:07.069Z,44.23
2018-11-23T05:30:37.260Z,42.30
2018-11-23T05:33:08.051Z,37.47
2018-11-23T05:35:38.565Z,42.73
2018-11-23T05:38:08.014Z,48.67
2018-11-23T05:40:38.595Z,47.83
2018-11-23T05:43:08.905Z,45.97
2018-11-23T05:45:39.119Z,45.10
2018-11-23T05:48:09.724Z,45.67
2018-11-23T05:50:39.894Z,48.10
2018-11-23T05:53:10.509Z,44.73
2018-11-23T05:55:40.839Z,47.60
2018-11-23T05:58:11.063Z,41.33
2018-11-23T06:00:41.919Z,39.40
2018-11-23T06:03:12.675Z,42.67
2018-11-23T06:05:43.014Z,45.37
2018-11-23T06:08:13.349Z,47.67
2018-11-23T06:10:43.985Z,49.13
2018-11-23T06:13:14.169Z,52.13
2018-11-23T06:15:45.852Z,43.60
2018-11-23T06:18:14.424Z,45.20
2018-11-23T06:20:44.194Z,45.77
2018-11-23T06:23:14.284Z,46.67
2018-11-23T06:25:46.578Z,47.63
2018-11-23T06:28:16.354Z,45.17
2018-11-23T06:30:46.144Z,51.10
2018-11-23T06:33:39.504Z,47.87
2018-11-23T06:36:10.314Z,47.97
2018-11-23T06:38:40.714Z,45.70
2018-11-23T06:41:11.353Z,45.07
2018-11-23T06:43:41.271Z,46.00
2018-11-23T06:46:12.540Z,47.43
2018-11-23T06:48:43.374Z,47.03
2018-11-23T06:51:14.134Z,47.77
2018-11-23T06:53:44.593Z,49.87
2018-11-23T06:56:14.703Z,50.17
2018-11-23T06:58:45.259Z,49.57
2018-11-23T07:01:15.209Z,50.27
2018-11-23T07:03:45.981Z,51.57
2018-11-23T07:06:16.568Z,49.77
2018-11-23T07:08:52.378Z,50.33
2018-11-23T07:11:17.169Z,51.57
2018-11-23T07:13:47.029Z,48.97
2018-11-23T07:16:16.879Z,51.87
2018-11-23T07:18:47.000Z,51.53
2018-11-23T07:21:21.410Z,53.27
2018-11-23T07:23:47.023Z,51.03
2018-11-23T07:26:17.039Z,49.97
2018-11-23T07:28:47.429Z,48.27
2018-11-23T07:31:17.084Z,45.83
2018-11-23T07:33:46.829Z,44.73
2018-11-23T07:36:17.523Z,46.70
2018-11-23T07:38:48.119Z,43.50
2018-11-23T07:41:54.134Z,43.27
2018-11-23T07:44:24.020Z,41.13
2018-11-23T07:46:55.418Z,42.43
2018-11-23T07:49:26.026Z,40.43
2018-11-23T07:51:56.219Z,42.63
2018-11-23T07:54:26.138Z,42.33
2018-11-23T07:56:56.531Z,42.03
2018-11-23T07:59:27.424Z,42.23
2018-11-23T08:01:57.403Z,44.03
2018-11-23T08:04:27.554Z,44.33
2018-11-23T08:06:57.404Z,48.33
2018-11-23T08:09:27.201Z,46.20
2018-11-23T08:11:57.233Z,45.90
2018-11-23T08:14:27.343Z,46.30
2018-11-23T08:16:58.018Z,44.97
2018-11-23T08:19:27.809Z,42.03
2018-11-23T08:21:57.464Z,43.43
2018-11-23T08:24:27.863Z,41.43
2018-11-23T08:26:58.429Z,38.13
2018-11-23T08:29:28.819Z,40.00
2018-11-23T08:31:59.113Z,40.03
2018-11-23T08:34:29.449Z,39.30
2018-11-23T08:37:00.205Z,37.10
2018-11-23T08:39:30.803Z,36.73
2018-11-23T08:42:01.469Z,38.33
2018-11-23T08:44:31.163Z,38.60
2018-11-23T08:47:01.484Z,37.67
2018-11-23T08:49:31.604Z,37.63
2018-11-23T08:52:01.394Z,39.30
2018-11-23T08:54:32.044Z,36.00
2018-11-23T08:57:02.599Z,36.07
2018-11-23T08:59:33.209Z,36.00
2018-11-23T09:02:03.833Z,34.67
2018-11-23T09:04:34.023Z,34.20
2018-11-23T09:07:04.618Z,33.70
2018-11-23T09:09:35.599Z,33.00
2018-11-23T09:12:06.579Z,32.67
2018-11-23T09:14:37.268Z,31.77
2018-11-23T09:17:07.559Z,31.80
2018-11-23T09:19:37.443Z,31.90
2018-11-23T09:22:08.453Z,30.80
2018-11-23T09:24:38.274Z,32.77
2018-11-23T09:27:08.104Z,30.17
2018-11-23T09:29:38.918Z,29.90
2018-11-23T09:32:09.578Z,30.83
2018-11-23T09:34:39.419Z,31.27
2018-11-23T09:37:09.824Z,30.60
2018-11-23T09:39:40.118Z,36.30
2018-11-23T09:42:10.359Z,30.33
2018-11-23T09:44:41.013Z,34.53
2018-11-23T09:47:10.894Z,35.23
2018-11-23T09:49:40.768Z,31.43
2018-11-23T09:52:11.178Z,32.77
2018-11-23T09:54:41.491Z,33.80
2018-11-23T09:57:11.688Z,34.93
2018-11-23T09:59:42.103Z,31.77
2018-11-23T10:02:12.699Z,32.07
2018-11-23T10:04:43.099Z,32.27
2018-11-23T10:07:14.029Z,33.13
2018-11-23T10:09:44.463Z,34.23
2018-11-23T10:12:14.663Z,35.73
2018-11-23T10:14:44.688Z,38.17
2018-11-23T10:17:14.961Z,38.33
2018-11-23T10:19:45.520Z,36.90
2018-11-23T10:22:16.074Z,35.67
2018-11-23T10:24:45.810Z,36.43
2018-11-23T10:27:15.958Z,33.57
2018-11-23T10:29:46.075Z,36.00
2018-11-23T10:32:16.171Z,38.23
2018-11-23T10:34:46.444Z,35.47
2018-11-23T10:37:16.754Z,32.53
2018-11-23T10:39:47.548Z,34.53
2018-11-23T10:42:18.119Z,40.50
2018-11-23T10:44:48.344Z,36.67
2018-11-23T10:47:18.644Z,33.90
2018-11-23T10:49:49.179Z,36.00
2018-11-23T10:52:19.786Z,33.07
2018-11-23T10:54:49.599Z,37.70
2018-11-23T10:57:19.483Z,35.20
2018-11-23T10:59:50.074Z,37.20
2018-11-23T11:02:38.258Z,39.90
2018-11-23T11:05:26.674Z,38.63
2018-11-23T11:08:54.169Z,40.73
2018-11-23T11:11:24.547Z,37.90
2018-11-23T11:13:54.714Z,36.87
2018-11-23T11:16:25.008Z,38.00
2018-11-23T11:18:55.063Z,39.07
2018-11-23T11:21:25.243Z,36.50
2018-11-23T11:23:55.269Z,39.10
2018-11-23T11:26:25.416Z,40.90
2018-11-23T11:28:55.459Z,37.50
2018-11-23T11:31:25.657Z,37.03
2018-11-23T11:33:55.809Z,37.53
2018-11-23T11:36:26.293Z,35.60
2018-11-23T11:38:56.358Z,35.73
2018-11-23T11:41:26.389Z,36.30
2018-11-23T11:43:56.534Z,39.03
2018-11-23T11:46:26.624Z,39.73
2018-11-23T11:48:56.643Z,39.47
2018-11-23T11:51:26.809Z,43.13
2018-11-23T11:53:56.716Z,43.87
2018-11-23T11:56:26.979Z,43.63
2018-11-23T11:58:56.993Z,49.67
2018-11-23T12:01:28.013Z,43.83
2018-11-23T12:03:58.369Z,44.77
2018-11-23T12:06:28.456Z,42.97
2018-11-23T12:08:58.559Z,39.93
2018-11-23T12:11:28.778Z,39.27
2018-11-23T12:13:59.485Z,40.73
2018-11-23T12:16:29.883Z,41.40
2018-11-23T12:18:59.874Z,42.83
2018-11-23T12:21:30.072Z,41.17
2018-11-23T12:24:00.699Z,40.40
2018-11-23T12:26:30.958Z,32.37
2018-11-23T12:29:01.073Z,34.10
2018-11-23T12:31:31.369Z,29.13
2018-11-23T12:34:01.436Z,32.30
2018-11-23T12:36:31.724Z,29.77
2018-11-23T12:39:02.055Z,31.23
2018-11-23T12:41:32.228Z,29.63
2018-11-23T12:44:02.374Z,32.77
2018-11-23T12:46:32.524Z,32.17
2018-11-23T12:49:02.659Z,32.80
2018-11-23T12:51:32.789Z,32.73
2018-11-23T12:54:02.809Z,35.67
2018-11-23T12:56:33.093Z,33.67
2018-11-23T12:59:03.289Z,33.70
2018-11-23T13:01:33.433Z,34.33
2018-11-23T13:04:03.461Z,32.80
2018-11-23T13:06:33.851Z,32.83
2018-11-23T13:09:04.172Z,32.60
2018-11-23T13:11:39.564Z,32.40
2018-11-23T13:14:10.229Z,33.27
2018-11-23T13:16:40.668Z,38.23
2018-11-23T13:19:10.778Z,36.40
2018-11-23T13:21:40.969Z,34.30
2018-11-23T13:24:11.219Z,35.33
2018-11-23T13:26:41.694Z,35.67
2018-11-23T13:29:16.164Z,36.87
2018-11-23T13:31:42.109Z,36.50
2018-11-23T13:34:12.380Z,34.30
2018-11-23T13:36:42.489Z,36.60
2018-11-23T13:39:12.590Z,37.23
2018-11-23T13:41:42.713Z,40.33
2018-11-23T13:44:13.014Z,38.50
2018-11-23T13:46:43.509Z,39.90
2018-11-23T13:49:13.997Z,43.70
2018-11-23T13:51:44.269Z,43.93
2018-11-23T13:54:14.596Z,40.27
2018-11-23T13:56:44.794Z,44.97
2018-11-23T13:59:14.925Z,44.27
2018-11-23T14:01:45.091Z,44.27
2018-11-23T14:04:15.289Z,47.47
2018-11-23T14:06:45.514Z,44.83
2018-11-23T14:09:15.774Z,47.63
2018-11-23T14:11:46.309Z,52.37
2018-11-23T14:14:16.444Z,52.33
2018-11-23T14:16:46.624Z,54.63
2018-11-23T14:19:16.863Z,52.93
2018-11-23T14:21:47.259Z,55.50
2018-11-23T14:24:17.914Z,56.33
2018-11-23T14:26:48.174Z,59.23
2018-11-23T14:29:18.324Z,56.77
2018-11-23T14:31:48.655Z,57.97
2018-11-23T14:34:18.849Z,58.27
2018-11-23T14:36:49.204Z,60.23
2018-11-23T14:39:19.393Z,60.30
2018-11-23T14:41:49.630Z,57.97
2018-11-23T14:44:19.974Z,61.27
2018-11-23T14:46:50.209Z,62.70
2018-11-23T14:49:20.641Z,63.70
2018-11-23T14:51:50.969Z,60.80
2018-11-23T14:54:21.204Z,63.37
2018-11-23T14:56:51.565Z,64.90
2018-11-23T14:59:21.724Z,65.43
2018-11-23T15:01:52.232Z,67.00
2018-11-23T15:04:22.334Z,64.80
2018-11-23T15:06:52.484Z,61.57
2018-11-23T15:09:22.624Z,59.57
2018-11-23T15:11:53.949Z,60.87
2018-11-23T15:14:24.117Z,65.90
2018-11-23T15:16:54.249Z,58.63
2018-11-23T15:19:24.203Z,62.43
2018-11-23T15:21:54.478Z,62.33
2018-11-23T15:24:24.683Z,59.80
2018-11-23T15:26:55.114Z,61.50
2018-11-23T15:29:25.229Z,59.93
2018-11-23T15:31:55.579Z,61.07
2018-11-23T15:34:26.209Z,62.53
2018-11-23T15:36:56.139Z,62.60
2018-11-23T15:39:26.479Z,57.53
2018-11-23T15:41:56.967Z,59.93
2018-11-23T15:44:26.994Z,59.33
2018-11-23T15:46:57.303Z,63.37
2018-11-23T15:49:27.579Z,63.37
2018-11-23T15:51:57.816Z,63.80
2018-11-23T15:54:28.534Z,60.93
2018-11-23T15:56:58.754Z,59.27
2018-11-23T15:59:28.989Z,56.33
2018-11-23T16:01:59.454Z,59.83
2018-11-23T16:04:29.848Z,58.70
2018-11-23T16:07:00.079Z,58.70
2018-11-23T16:09:30.254Z,58.60
2018-11-23T16:12:00.411Z,57.10
2018-11-23T16:14:31.063Z,56.83
2018-11-23T16:17:01.206Z,61.93
2018-11-23T16:19:31.278Z,62.90
2018-11-23T16:22:01.514Z,57.17
2018-11-23T16:24:31.896Z,59.00
2018-11-23T16:27:02.125Z,56.73
2018-11-23T16:29:32.133Z,59.47
2018-11-23T16:32:02.304Z,58.53
2018-11-23T16:34:32.439Z,65.40
2018-11-23T16:37:02.904Z,55.10
2018-11-23T16:39:32.973Z,55.43
2018-11-23T16:42:03.544Z,57.73
2018-11-23T16:44:36.900Z,58.77
2018-11-23T16:47:07.179Z,60.67
2018-11-23T16:49:37.355Z,57.33
2018-11-23T16:52:07.989Z,58.93
2018-11-23T16:54:38.954Z,58.57
2018-11-23T16:57:09.369Z,50.90
2018-11-23T16:59:39.714Z,50.40
2018-11-23T17:02:10.114Z,52.83
2018-11-23T17:04:40.392Z,46.03
2018-11-23T17:07:12.973Z,48.93
2018-11-23T17:09:41.189Z,51.63
2018-11-23T17:12:11.633Z,49.17
2018-11-23T17:14:42.803Z,48.53
2018-11-23T17:17:13.168Z,49.33
2018-11-23T17:19:43.628Z,49.63
2018-11-23T17:22:14.979Z,51.60
2018-11-23T17:24:45.325Z,51.53
2018-11-23T17:27:15.794Z,49.47
2018-11-23T17:29:45.744Z,47.00
2018-11-23T17:32:15.789Z,45.57
2018-11-23T17:34:46.079Z,47.47
2018-11-23T17:37:16.879Z,47.27
2018-11-23T17:39:47.064Z,44.87
2018-11-23T17:42:17.454Z,43.87
2018-11-23T17:44:47.993Z,45.10
2018-11-23T17:50:04.779Z,42.40
2018-11-23T17:52:35.443Z,42.73
2018-11-23T17:55:05.793Z,42.13
2018-11-23T17:57:36.314Z,42.50
2018-11-23T18:00:16.749Z,38.70
2018-11-23T18:02:47.628Z,41.03
2018-11-23T18:05:18.549Z,40.03
2018-11-23T18:07:50.193Z,38.93
2018-11-23T18:10:23.634Z,41.77
2018-11-23T18:12:55.646Z,42.33
2018-11-23T18:15:27.570Z,40.73
2018-11-23T18:17:59.053Z,38.93
2018-11-23T18:20:30.905Z,36.23
2018-11-23T18:23:02.179Z,40.67
2018-11-23T18:25:35.913Z,32.97
2018-11-23T18:28:06.614Z,34.10
2018-11-23T18:30:36.994Z,34.70
2018-11-23T18:33:09.296Z,35.57
2018-11-23T18:35:39.361Z,36.27
2018-11-23T18:38:09.748Z,38.63
2018-11-23T18:40:40.413Z,35.13
2018-11-23T18:43:11.194Z,37.33
2018-11-23T18:45:41.280Z,34.40
2018-11-23T18:48:11.509Z,33.63
2018-11-23T18:50:41.879Z,32.57
2018-11-23T18:53:12.743Z,33.33
2018-11-23T18:55:42.919Z,34.90
2018-11-23T18:58:13.399Z,30.93
2018-11-23T19:00:43.604Z,32.07
2018-11-23T19:03:14.834Z,27.57
2018-11-23T19:05:45.119Z,27.37
2018-11-23T19:08:15.554Z,28.03
2018-11-23T19:10:46.114Z,26.33
2018-11-23T19:13:17.264Z,25.30
2018-11-23T19:15:47.415Z,26.30
2018-11-23T19:18:18.129Z,26.90
2018-11-23T19:20:49.712Z,23.50
2018-11-23T19:23:20.059Z,24.00
2018-11-23T19:25:50.604Z,25.33
2018-11-23T19:28:21.814Z,24.90
2018-11-23T19:30:52.195Z,22.50
2018-11-23T19:33:22.664Z,23.67
2018-11-23T19:35:53.155Z,22.57
2018-11-23T19:38:23.949Z,23.33
2018-11-23T19:40:54.320Z,24.30
2018-11-23T19:43:24.723Z,23.83
2018-11-23T19:45:55.934Z,24.53
2018-11-23T19:48:26.404Z,22.37
2018-11-23T19:50:56.854Z,24.00
2018-11-23T19:53:27.984Z,23.43
2018-11-23T19:55:59.004Z,26.37
2018-11-23T19:58:29.894Z,25.37
2018-11-23T20:01:00.324Z,24.20
2018-11-23T20:03:31.339Z,25.77
2018-11-23T20:06:01.964Z,24.90
2018-11-23T20:08:32.504Z,25.33
2018-11-23T20:11:03.152Z,23.27
2018-11-23T20:13:33.664Z,22.73
2018-11-23T20:16:04.419Z,27.03
2018-11-23T20:18:35.420Z,25.50
2018-11-23T20:21:06.024Z,25.37
2018-11-23T20:23:38.774Z,23.37
2018-11-23T20:26:09.744Z,22.20
2018-11-23T20:28:40.729Z,21.47
2018-11-23T20:31:11.534Z,21.63
2018-11-23T20:33:42.364Z,20.00
2018-11-23T20:36:12.954Z,22.67
2018-11-23T20:38:43.371Z,24.67
2018-11-23T20:41:13.856Z,20.70
2018-11-23T20:43:44.464Z,21.77
2018-11-23T20:46:14.904Z,22.00
2018-11-23T20:48:45.489Z,24.00
2018-11-23T20:51:17.004Z,23.67
2018-11-23T20:53:47.914Z,23.37
2018-11-23T20:56:18.339Z,22.27
2018-11-23T20:58:49.093Z,23.43
2018-11-23T21:01:20.109Z,22.40
2018-11-23T21:03:50.499Z,22.10
2018-11-23T21:06:20.980Z,21.67
2018-11-23T21:08:51.693Z,21.87
2018-11-23T21:11:22.279Z,23.13
2018-11-23T21:13:54.220Z,22.67
2018-11-23T21:16:25.729Z,23.03
2018-11-23T21:18:56.154Z,20.60
2018-11-23T21:21:26.624Z,20.97
2018-11-23T21:23:57.494Z,20.93
2018-11-23T21:26:28.604Z,20.03
2018-11-23T21:28:59.494Z,20.43
2018-11-23T21:31:30.269Z,19.03
2018-11-23T21:34:01.224Z,20.00
2018-11-23T21:36:31.654Z,20.07
2018-11-23T21:39:01.945Z,20.67
2018-11-23T21:41:32.286Z,20.83
2018-11-23T21:44:02.884Z,21.00
2018-11-23T21:46:33.544Z,21.33
2018-11-23T21:49:03.814Z,21.27
2018-11-23T21:51:34.924Z,21.30
2018-11-23T21:54:05.135Z,18.87
2018-11-23T21:56:35.852Z,21.03
2018-11-23T21:59:06.341Z,19.50
2018-11-23T22:01:37.071Z,19.93
2018-11-23T22:04:07.957Z,20.73
2018-11-23T22:06:38.974Z,20.73
2018-11-23T22:09:09.704Z,20.37
2018-11-23T22:11:40.100Z,21.90
2018-11-23T22:14:11.054Z,20.17
2018-11-23T22:16:41.439Z,20.87
2018-11-23T22:19:11.969Z,20.50
2018-11-23T22:21:42.964Z,21.43
2018-11-23T22:24:13.354Z,21.80
2018-11-23T22:26:43.679Z,23.00
2018-11-23T22:29:13.978Z,23.17
2018-11-23T22:31:44.689Z,23.57
2018-11-23T22:34:15.378Z,24.00
2018-11-23T22:36:45.529Z,23.77
2018-11-23T22:39:15.589Z,24.60
2018-11-23T22:41:45.784Z,25.07
2018-11-23T22:44:16.294Z,26.53
2018-11-23T22:46:46.479Z,26.90
2018-11-23T22:49:17.009Z,28.33
2018-11-23T22:51:47.169Z,30.73
2018-11-23T22:54:17.219Z,26.17
2018-11-23T22:56:47.489Z,27.17
2018-11-23T22:59:17.774Z,37.77
2018-11-23T23:01:48.260Z,25.77
2018-11-23T23:04:18.669Z,26.03
2018-11-23T23:06:48.979Z,25.60
2018-11-23T23:09:19.513Z,24.53
2018-11-23T23:11:49.887Z,23.03
2018-11-23T23:14:20.324Z,24.80
2018-11-23T23:16:50.789Z,25.17
2018-11-23T23:19:20.969Z,25.00
2018-11-23T23:21:51.072Z,24.87
2018-11-23T23:24:21.364Z,25.90
2018-11-23T23:26:51.581Z,26.20
2018-11-23T23:29:21.909Z,26.80
2018-11-23T23:31:52.369Z,26.97
2018-11-23T23:34:23.749Z,26.67
2018-11-23T23:36:54.108Z,31.23
2018-11-23T23:39:24.534Z,28.77
2018-11-23T23:41:54.709Z,27.37
2018-11-23T23:44:25.134Z,26.53
2018-11-23T23:46:55.629Z,25.73
2018-11-23T23:49:25.719Z,20.43
2018-11-23T23:51:56.049Z,15.03
2018-11-23T23:54:26.199Z,12.53
2018-11-23T23:56:56.569Z,12.87
2018-11-23T23:59:26.989Z,12.83
